Vilnius, Baltarusija

12:17 PM +03 on lapkričio 20, 2017 (GMT +0300)
Vilnius International | | Change Station

Elev 512 ft 54.63 °N, 25.28 °E | Updated 4 minutes ago

Debesuotumas
Debesuotumas
36 °F
Feels Like 29 °F
N
9
Vėjas nepastovus Vėjas from Pietūs

Šiandien
High -- | Low -- °F
--% Chance of Precip.
Yesterday
High -- | Low -- °F
Precip. -- in
Slėgis 29.65 in
Matomumas 4.3 mylios
Debesys Debesuotumas 500 ft
Šaltas vėjas 29 °F
Rasos taškas 34 °F
Drėgmė 93%
Krituliai 0.00 in
Sniego dangos storis Not available.
8:55 AM 5:07 PM
Priešpilnis mėnulis, 3% visible
SPECI EYVI 200913Z 18008KT 7000 OVC005 02/01 Q1004 R19/2/0195 NOSIG
Slėgis 29.65 in
Matomumas 4.3 mylios
Debesys Debesuotumas 500 ft
Šaltas vėjas 29 °F
Rasos taškas 34 °F
Drėgmė 93%
Krituliai 0.00 in
Sniego dangos storis Not available.
8:55 AM 5:07 PM
Priešpilnis mėnulis, 3% visible
SPECI EYVI 200913Z 18008KT 7000 OVC005 02/01 Q1004 R19/2/0195 NOSIG

Get Severe Weather Alerts

Thanks for signing up!

Be on the lookout for a verification email in your inbox.

You'll start receiving the daily forecast at 6 AM.

×

10-Day Weather Forecast

×

Almanac

Astronomija

Nov. 20, 2017 Rise Set
Vietos laikas
Dienos šviesa
Jūrinė diena
Astronominė diena
Mėnulis
Matomos šviesos trukmė
Dienos ilgis
Tomorrow will be .
, % of the Moon is Illuminated

Šiandienos maksimumai

Country Highs Country Lows

Community

WunderPhotos

Category 6

Welcome to Category 6. This is the collective home for Weather Underground's featured writeups by Dr. Jeff Masters (right), Bob Henson (left), Chris Burt, and other regular contributors.

Nearby

Air Quality

  Air Quality AQ Index Pollutant
Not available.

Sniego danga

Station Depth Elevation

Earthquake Activity

Miestas Distance Mag. Time & Date
Minimum magnitude displayed is 2.5.

Coastal Water Temperatures

Vieta Temperatūra

Stations

Nearby Weather Stations

Station Location Temp Šaltas vėjas Rasos taškas Drėgmė Vėjas Precip. Elev Duomenys papildyti Type